createdAt,value
2023-11-11T00:00:16.945Z,72219.19
2023-11-11T00:00:49.923Z,72219.19
2023-11-11T00:01:24.929Z,72219.19
2023-11-11T00:01:57.379Z,72221.19
2023-11-11T00:02:32.387Z,72213.22
2023-11-11T00:03:05.499Z,72223.19
2023-11-11T00:03:38.271Z,72215.22
2023-11-11T00:04:13.486Z,72223.19
2023-11-11T00:04:45.996Z,72219.19
2023-11-11T00:05:18.535Z,72217.19
2023-11-11T00:05:53.772Z,72219.19
2023-11-11T00:06:26.187Z,72223.19
2023-11-11T00:06:58.713Z,72227.19
2023-11-11T00:07:31.099Z,72215.22
2023-11-11T00:08:06.172Z,72223.19
2023-11-11T00:08:38.825Z,72215.22
2023-11-11T00:09:11.526Z,72223.19
2023-11-11T00:09:43.921Z,72219.19
2023-11-11T00:10:19.297Z,72215.22
2023-11-11T00:10:51.760Z,72219.19
2023-11-11T00:11:25.281Z,72219.19
2023-11-11T00:12:00.109Z,72211.22
2023-11-11T00:12:36.255Z,72213.22
2023-11-11T00:13:09.867Z,72211.22
2023-11-11T00:13:42.432Z,72219.19
2023-11-11T00:14:17.000Z,72211.22
2023-11-11T00:14:54.009Z,72215.22
2023-11-11T00:15:26.742Z,72221.19
2023-11-11T00:15:59.268Z,72211.22
2023-11-11T00:16:33.244Z,72213.22
2023-11-11T00:17:08.997Z,72211.22
2023-11-11T00:17:44.143Z,72207.22
2023-11-11T00:18:19.425Z,72211.22
2023-11-11T00:18:51.998Z,72209.22
2023-11-11T00:19:27.072Z,72211.22
2023-11-11T00:20:00.919Z,72207.22
2023-11-11T00:20:34.059Z,72203.22
2023-11-11T00:21:06.545Z,72199.25
2023-11-11T00:21:44.054Z,72201.25
2023-11-11T00:22:16.446Z,72193.25
2023-11-11T00:22:50.713Z,72193.25
2023-11-11T00:23:25.721Z,72199.25
2023-11-11T00:23:58.076Z,72201.25
2023-11-11T00:24:31.050Z,72187.28
2023-11-11T00:25:03.828Z,72183.28
2023-11-11T00:25:38.788Z,72191.25
2023-11-11T00:26:11.157Z,72179.28
2023-11-11T00:26:45.846Z,72181.28
2023-11-11T00:27:18.310Z,72187.28
2023-11-11T00:27:53.798Z,72187.28
2023-11-11T00:28:26.618Z,72187.28
2023-11-11T00:28:58.997Z,72179.28
2023-11-11T00:29:31.773Z,72181.28
2023-11-11T00:30:08.155Z,72175.28
2023-11-11T00:30:42.477Z,72171.31
2023-11-11T00:31:15.023Z,72167.31
2023-11-11T00:31:48.586Z,72165.31
2023-11-11T00:32:23.676Z,72167.31
2023-11-11T00:32:58.712Z,72169.31
2023-11-11T00:33:31.157Z,72163.31
2023-11-11T00:34:03.561Z,72167.31
2023-11-11T00:34:40.907Z,72171.31
2023-11-11T00:35:13.543Z,72167.31
2023-11-11T00:35:46.252Z,72165.31
2023-11-11T00:36:20.469Z,72167.31
2023-11-11T00:36:55.590Z,72165.31
2023-11-11T00:37:28.196Z,72167.31
2023-11-11T00:38:01.937Z,72163.31
2023-11-11T00:38:34.540Z,72163.31
2023-11-11T00:39:12.314Z,72163.31
2023-11-11T00:39:44.791Z,72161.31
2023-11-11T00:40:17.317Z,72155.34
2023-11-11T00:40:50.364Z,72155.34
2023-11-11T00:41:25.355Z,72159.31
2023-11-11T00:41:57.757Z,72155.34
2023-11-11T00:42:30.738Z,72157.34
2023-11-11T00:43:03.122Z,72157.34
2023-11-11T00:43:38.117Z,72155.34
2023-11-11T00:44:10.844Z,72155.34
2023-11-11T00:44:45.755Z,72155.34
2023-11-11T00:45:18.790Z,72161.31
2023-11-11T00:45:54.663Z,72161.31
2023-11-11T00:46:27.740Z,72161.31
2023-11-11T00:47:00.223Z,72153.34
2023-11-11T00:47:32.707Z,72151.34
2023-11-11T00:48:10.666Z,72151.34
2023-11-11T00:48:43.104Z,72149.34
2023-11-11T00:49:15.567Z,72155.34
2023-11-11T00:49:50.674Z,72151.34
2023-11-11T00:50:25.710Z,72147.34
2023-11-11T00:50:59.715Z,72151.34
2023-11-11T00:51:32.316Z,72155.34
2023-11-11T00:52:05.509Z,72155.34
2023-11-11T00:52:40.494Z,72153.34
2023-11-11T00:53:12.907Z,72145.34
2023-11-11T00:53:46.507Z,72147.34
2023-11-11T00:54:18.896Z,72139.38
2023-11-11T00:54:53.910Z,72141.38
2023-11-11T00:55:27.257Z,72141.38
2023-11-11T00:55:59.663Z,72139.38
2023-11-11T00:56:32.040Z,72139.38
2023-11-11T00:57:08.613Z,72141.38
2023-11-11T00:57:42.400Z,72145.34
2023-11-11T00:58:14.856Z,72139.38
2023-11-11T00:58:47.234Z,72143.38
2023-11-11T00:59:22.242Z,72147.34
2023-11-11T00:59:54.619Z,72147.34
2023-11-11T01:00:27.474Z,72141.38
2023-11-11T01:00:59.895Z,72143.38
2023-11-11T01:01:35.416Z,72143.38
2023-11-11T01:02:08.028Z,72139.38
2023-11-11T01:02:40.561Z,72143.38
2023-11-11T01:03:15.734Z,72135.38
2023-11-11T01:03:51.200Z,72135.38
2023-11-11T01:04:23.693Z,72139.38
2023-11-11T01:04:56.281Z,72133.38
2023-11-11T01:05:31.244Z,72139.38
2023-11-11T01:06:04.423Z,72127.41
2023-11-11T01:06:36.877Z,72131.38
2023-11-11T01:07:11.919Z,72125.41
2023-11-11T01:07:44.378Z,72127.41
2023-11-11T01:08:16.756Z,72135.38
2023-11-11T01:08:49.358Z,72123.41
2023-11-11T01:09:25.312Z,72117.41
2023-11-11T01:09:57.735Z,72123.41
2023-11-11T01:10:30.224Z,72119.41
2023-11-11T01:11:03.459Z,72115.44
2023-11-11T01:11:40.004Z,72113.44
2023-11-11T01:12:14.004Z,72123.41
2023-11-11T01:12:49.771Z,72123.41
2023-11-11T01:13:24.856Z,72119.41
2023-11-11T01:13:57.861Z,72115.44
2023-11-11T01:14:32.173Z,72117.41
2023-11-11T01:15:11.057Z,72115.44
2023-11-11T01:15:44.028Z,72115.44
2023-11-11T01:16:16.833Z,72123.41
2023-11-11T01:16:49.509Z,72121.41
2023-11-11T01:17:24.827Z,72125.41
2023-11-11T01:17:57.432Z,72115.44
2023-11-11T01:18:32.741Z,72115.44
2023-11-11T01:19:05.733Z,72123.41
2023-11-11T01:19:43.285Z,72119.41
2023-11-11T01:20:15.957Z,72119.41
2023-11-11T01:20:48.453Z,72123.41
2023-11-11T01:21:20.972Z,72123.41
2023-11-11T01:21:56.192Z,72123.41
2023-11-11T01:22:28.770Z,72119.41
2023-11-11T01:23:03.375Z,72115.44
2023-11-11T01:23:36.449Z,72115.44
2023-11-11T01:24:12.446Z,72123.41
2023-11-11T01:24:44.987Z,72115.44
2023-11-11T01:25:18.543Z,72123.41
2023-11-11T01:25:54.136Z,72123.41
2023-11-11T01:26:26.796Z,72121.41
2023-11-11T01:27:00.296Z,72119.41
2023-11-11T01:27:33.444Z,72119.41
2023-11-11T01:28:08.601Z,72123.41
2023-11-11T01:28:41.038Z,72123.41
2023-11-11T01:29:14.329Z,72123.41
2023-11-11T01:29:46.820Z,72123.41
2023-11-11T01:30:21.868Z,72119.41
2023-11-11T01:30:55.107Z,72113.44
2023-11-11T01:31:27.760Z,72117.41
2023-11-11T01:32:02.941Z,72121.41
2023-11-11T01:32:35.389Z,72121.41
2023-11-11T01:33:08.023Z,72119.41
2023-11-11T01:33:43.982Z,72119.41
2023-11-11T01:34:19.097Z,72127.41
2023-11-11T01:34:51.611Z,72127.41
2023-11-11T01:35:24.572Z,72127.41
2023-11-11T01:36:02.751Z,72125.41
2023-11-11T01:36:35.316Z,72131.38
2023-11-11T01:37:09.739Z,72131.38
2023-11-11T01:37:42.211Z,72129.41
2023-11-11T01:38:17.183Z,72129.41
2023-11-11T01:38:49.632Z,72123.41
2023-11-11T01:39:22.096Z,72127.41
2023-11-11T01:39:54.628Z,72125.41
2023-11-11T01:40:29.618Z,72123.41
2023-11-11T01:41:04.740Z,72123.41
2023-11-11T01:41:37.363Z,72127.41
2023-11-11T01:42:09.780Z,72119.41
2023-11-11T01:42:44.809Z,72127.41
2023-11-11T01:43:17.320Z,72129.41
2023-11-11T01:43:49.761Z,72123.41
2023-11-11T01:44:24.809Z,72115.44
2023-11-11T01:44:57.325Z,72123.41
2023-11-11T01:45:30.659Z,72125.41
2023-11-11T01:46:04.854Z,72123.41
2023-11-11T01:46:40.074Z,72123.41
2023-11-11T01:47:12.770Z,72127.41
2023-11-11T01:47:45.230Z,72133.38
2023-11-11T01:48:18.793Z,72127.41
2023-11-11T01:48:57.310Z,72123.41
2023-11-11T01:49:29.774Z,72137.38
2023-11-11T01:50:02.188Z,72127.41
2023-11-11T01:50:34.875Z,72135.38
2023-11-11T01:51:09.873Z,72127.41
2023-11-11T01:51:42.629Z,72135.38
2023-11-11T01:52:15.185Z,72135.38
2023-11-11T01:52:47.820Z,72129.41
2023-11-11T01:53:23.874Z,72131.38
2023-11-11T01:53:56.622Z,72127.41
2023-11-11T01:54:30.239Z,72139.38
2023-11-11T01:55:05.743Z,72135.38
2023-11-11T01:55:38.230Z,72133.38
2023-11-11T01:56:10.604Z,72133.38
2023-11-11T01:56:43.010Z,72129.41
2023-11-11T01:57:18.837Z,72133.38
2023-11-11T01:57:51.289Z,72133.38
2023-11-11T01:58:23.881Z,72133.38
2023-11-11T01:58:59.652Z,72131.38
2023-11-11T01:59:33.368Z,72133.38
2023-11-11T02:00:14.246Z,72139.38
2023-11-11T02:00:48.617Z,72135.38
2023-11-11T02:01:24.717Z,72135.38
2023-11-11T02:02:01.202Z,72135.38
2023-11-11T02:02:33.762Z,72135.38
2023-11-11T02:03:07.547Z,72135.38
2023-11-11T02:03:42.989Z,72131.38
2023-11-11T02:04:19.176Z,72139.38
2023-11-11T02:04:52.528Z,72131.38
2023-11-11T02:05:27.832Z,72143.38
2023-11-11T02:06:00.254Z,72141.38
2023-11-11T02:06:33.049Z,72135.38
2023-11-11T02:07:08.727Z,72143.38
2023-11-11T02:07:41.925Z,72147.34
2023-11-11T02:08:16.338Z,72139.38
2023-11-11T02:08:48.748Z,72139.38
2023-11-11T02:09:24.723Z,72141.38
2023-11-11T02:09:58.033Z,72133.38
2023-11-11T02:10:32.469Z,72135.38
2023-11-11T02:11:08.527Z,72135.38
2023-11-11T02:11:41.789Z,72139.38
2023-11-11T02:12:14.325Z,72141.38
2023-11-11T02:12:46.966Z,72139.38
2023-11-11T02:13:23.361Z,72131.38
2023-11-11T02:13:55.903Z,72129.41
2023-11-11T02:14:28.494Z,72137.38
2023-11-11T02:15:03.860Z,72135.38
2023-11-11T02:15:37.468Z,72139.38
2023-11-11T02:16:10.886Z,72139.38
2023-11-11T02:16:46.036Z,72139.38
2023-11-11T02:17:18.453Z,72139.38
2023-11-11T02:17:51.046Z,72135.38
2023-11-11T02:18:23.934Z,72139.38
2023-11-11T02:18:59.094Z,72147.34
2023-11-11T02:19:34.117Z,72139.38
2023-11-11T02:20:13.116Z,72139.38
2023-11-11T02:20:50.844Z,72135.38
2023-11-11T02:21:23.315Z,72143.38
2023-11-11T02:21:55.754Z,72139.38
2023-11-11T02:22:30.959Z,72135.38
2023-11-11T02:23:03.867Z,72139.38
2023-11-11T02:23:39.209Z,72137.38
2023-11-11T02:24:12.175Z,72139.38
2023-11-11T02:24:48.236Z,72137.38
2023-11-11T02:25:21.425Z,72137.38
2023-11-11T02:25:54.088Z,72135.38
2023-11-11T02:26:27.216Z,72135.38
2023-11-11T02:27:02.296Z,72139.38
2023-11-11T02:27:35.110Z,72135.38
2023-11-11T02:28:07.487Z,72135.38
2023-11-11T02:28:39.864Z,72133.38
2023-11-11T02:29:14.885Z,72135.38
2023-11-11T02:29:47.532Z,72127.41
2023-11-11T02:30:20.042Z,72123.41
2023-11-11T02:30:52.491Z,72135.38
2023-11-11T02:31:27.604Z,72127.41
2023-11-11T02:32:00.043Z,72131.38
2023-11-11T02:32:32.939Z,72133.38
2023-11-11T02:33:05.403Z,72135.38
2023-11-11T02:33:40.408Z,72127.41
2023-11-11T02:34:12.919Z,72127.41
2023-11-11T02:34:45.321Z,72137.38
2023-11-11T02:35:18.208Z,72135.38
2023-11-11T02:35:53.161Z,72135.38
2023-11-11T02:36:25.648Z,72141.38
2023-11-11T02:37:02.595Z,72131.38
2023-11-11T02:37:35.593Z,72133.38
2023-11-11T02:38:10.583Z,72131.38
2023-11-11T02:38:45.859Z,72127.41
2023-11-11T02:39:18.750Z,72135.38
2023-11-11T02:39:51.183Z,72133.38
2023-11-11T02:40:26.290Z,72125.41
2023-11-11T02:40:58.729Z,72127.41
2023-11-11T02:41:31.096Z,72125.41
2023-11-11T02:42:03.832Z,72125.41
2023-11-11T02:42:39.244Z,72127.41
2023-11-11T02:43:13.019Z,72127.41
2023-11-11T02:43:45.380Z,72137.38
2023-11-11T02:44:17.768Z,72123.41
2023-11-11T02:44:53.036Z,72131.38
2023-11-11T02:45:27.054Z,72127.41
2023-11-11T02:45:59.830Z,72129.41
2023-11-11T02:46:34.943Z,72127.41
2023-11-11T02:47:07.472Z,72119.41
2023-11-11T02:47:39.998Z,72131.38
2023-11-11T02:48:12.429Z,72123.41
2023-11-11T02:48:49.257Z,72127.41
2023-11-11T02:49:21.819Z,72123.41
2023-11-11T02:49:54.279Z,72125.41
2023-11-11T02:50:26.657Z,72119.41
2023-11-11T02:51:01.670Z,72125.41
2023-11-11T02:51:35.434Z,72127.41
2023-11-11T02:52:08.139Z,72121.41
2023-11-11T02:52:40.696Z,72123.41
2023-11-11T02:53:15.677Z,72131.38
2023-11-11T02:53:50.655Z,72127.41
2023-11-11T02:54:23.071Z,72123.41
2023-11-11T02:54:55.451Z,72127.41
2023-11-11T02:55:30.433Z,72125.41
2023-11-11T02:56:03.216Z,72125.41
2023-11-11T02:56:35.590Z,72127.41
2023-11-11T02:57:08.050Z,72137.38
2023-11-11T02:57:43.140Z,72129.41
2023-11-11T02:58:15.555Z,72127.41
2023-11-11T02:58:48.147Z,72123.41
2023-11-11T02:59:20.536Z,72119.41
2023-11-11T02:59:55.510Z,72125.41
2023-11-11T03:00:29.596Z,72127.41
2023-11-11T03:01:03.075Z,72129.41
2023-11-11T03:01:36.592Z,72127.41
2023-11-11T03:02:12.536Z,72125.41
2023-11-11T03:02:45.044Z,72123.41
2023-11-11T03:03:17.983Z,72127.41
2023-11-11T03:03:51.019Z,72127.41
2023-11-11T03:04:26.211Z,72131.38
2023-11-11T03:04:58.635Z,72139.38
2023-11-11T03:05:31.447Z,72123.41
2023-11-11T03:06:04.771Z,72135.38
2023-11-11T03:06:43.653Z,72135.38
2023-11-11T03:07:16.164Z,72129.41
2023-11-11T03:07:48.723Z,72127.41
2023-11-11T03:08:21.119Z,72133.38
2023-11-11T03:08:58.757Z,72133.38
2023-11-11T03:09:31.201Z,72133.38
2023-11-11T03:10:07.261Z,72131.38
2023-11-11T03:10:42.487Z,72135.38
2023-11-11T03:11:14.972Z,72131.38
2023-11-11T03:11:47.493Z,72131.38
2023-11-11T03:12:22.643Z,72127.41
2023-11-11T03:12:55.913Z,72123.41
2023-11-11T03:13:28.384Z,72133.38
2023-11-11T03:14:02.360Z,72127.41
2023-11-11T03:14:37.441Z,72127.41
2023-11-11T03:15:11.023Z,72133.38
2023-11-11T03:15:43.622Z,72133.38
2023-11-11T03:16:16.230Z,72129.41
2023-11-11T03:16:51.407Z,72127.41
2023-11-11T03:17:24.786Z,72129.41
2023-11-11T03:17:59.454Z,72131.38
2023-11-11T03:18:31.911Z,72133.38
2023-11-11T03:19:07.681Z,72135.38
2023-11-11T03:19:41.867Z,72131.38
2023-11-11T03:20:15.590Z,72129.41
2023-11-11T03:20:50.608Z,72143.38
2023-11-11T03:21:23.308Z,72135.38
2023-11-11T03:21:56.194Z,72143.38
2023-11-11T03:22:28.778Z,72143.38
2023-11-11T03:23:04.191Z,72143.38
2023-11-11T03:23:36.609Z,72143.38
2023-11-11T03:24:12.139Z,72143.38
2023-11-11T03:24:44.812Z,72147.34
2023-11-11T03:25:21.198Z,72143.38
2023-11-11T03:25:54.048Z,72149.34
2023-11-11T03:26:26.825Z,72153.34
2023-11-11T03:26:59.278Z,72147.34
2023-11-11T03:27:34.560Z,72147.34
2023-11-11T03:28:06.958Z,72149.34
2023-11-11T03:28:39.372Z,72155.34
2023-11-11T03:29:11.787Z,72155.34
2023-11-11T03:29:44.277Z,72159.31
2023-11-11T03:30:19.883Z,72159.31
2023-11-11T03:30:52.388Z,72167.31
2023-11-11T03:31:24.831Z,72151.34
2023-11-11T03:31:57.306Z,72155.34
2023-11-11T03:32:32.433Z,72153.34
2023-11-11T03:33:04.853Z,72155.34
2023-11-11T03:33:37.793Z,72155.34
2023-11-11T03:34:12.799Z,72153.34
2023-11-11T03:34:45.218Z,72155.34
2023-11-11T03:35:19.034Z,72155.34
2023-11-11T03:35:54.083Z,72159.31
2023-11-11T03:36:26.604Z,72159.31
2023-11-11T03:36:59.193Z,72155.34
2023-11-11T03:37:31.702Z,72155.34
2023-11-11T03:38:10.731Z,72157.34
2023-11-11T03:38:43.665Z,72155.34
2023-11-11T03:39:18.676Z,72159.31
2023-11-11T03:39:53.652Z,72153.34
2023-11-11T03:40:26.310Z,72163.31
2023-11-11T03:40:58.679Z,72159.31
2023-11-11T03:41:31.298Z,72157.34
2023-11-11T03:42:06.542Z,72157.34
2023-11-11T03:42:39.465Z,72159.31
2023-11-11T03:43:11.854Z,72163.31
2023-11-11T03:43:44.397Z,72163.31
2023-11-11T03:44:19.367Z,72163.31
2023-11-11T03:44:51.731Z,72159.31
2023-11-11T03:45:24.194Z,72159.31
2023-11-11T03:46:00.510Z,72165.31
2023-11-11T03:46:33.089Z,72167.31
2023-11-11T03:47:05.767Z,72169.31
2023-11-11T03:47:39.642Z,72175.28
2023-11-11T03:48:15.248Z,72165.31
2023-11-11T03:48:48.409Z,72171.31
2023-11-11T03:49:21.368Z,72177.28
2023-11-11T03:49:53.740Z,72169.31
2023-11-11T03:50:28.727Z,72167.31
2023-11-11T03:51:01.124Z,72167.31
2023-11-11T03:51:33.567Z,72173.28
2023-11-11T03:52:10.769Z,72169.31
2023-11-11T03:52:43.333Z,72173.28
2023-11-11T03:53:15.699Z,72171.31
2023-11-11T03:53:48.087Z,72171.31
2023-11-11T03:54:27.381Z,72167.31
2023-11-11T03:54:59.784Z,72163.31
2023-11-11T03:55:33.320Z,72171.31
2023-11-11T03:56:08.812Z,72167.31
2023-11-11T03:56:45.349Z,72171.31
2023-11-11T03:57:18.217Z,72163.31
2023-11-11T03:57:50.667Z,72171.31
2023-11-11T03:58:24.138Z,72167.31
2023-11-11T03:58:59.109Z,72171.31
2023-11-11T03:59:33.890Z,72167.31
2023-11-11T04:00:11.490Z,72171.31
2023-11-11T04:00:46.289Z,72167.31
2023-11-11T04:01:21.437Z,72165.31
2023-11-11T04:01:54.612Z,72171.31
2023-11-11T04:02:27.385Z,72171.31
2023-11-11T04:03:00.191Z,72171.31
2023-11-11T04:03:38.093Z,72159.31
2023-11-11T04:04:10.625Z,72163.31
2023-11-11T04:04:43.105Z,72165.31
2023-11-11T04:05:15.936Z,72163.31
2023-11-11T04:05:51.097Z,72167.31
2023-11-11T04:06:23.853Z,72171.31
2023-11-11T04:06:56.390Z,72171.31
2023-11-11T04:07:29.131Z,72167.31
2023-11-11T04:08:04.729Z,72171.31
2023-11-11T04:08:37.148Z,72171.31
2023-11-11T04:09:09.543Z,72165.31
2023-11-11T04:09:45.509Z,72167.31
2023-11-11T04:10:20.951Z,72159.31
2023-11-11T04:10:55.177Z,72167.31
2023-11-11T04:11:28.686Z,72175.28
2023-11-11T04:12:01.316Z,72167.31
2023-11-11T04:12:36.590Z,72171.31
2023-11-11T04:13:10.635Z,72167.31
2023-11-11T04:13:43.637Z,72165.31
2023-11-11T04:14:18.727Z,72175.28
2023-11-11T04:14:51.193Z,72167.31
2023-11-11T04:15:24.035Z,72175.28
2023-11-11T04:15:59.711Z,72175.28
2023-11-11T04:16:32.503Z,72179.28
2023-11-11T04:17:05.451Z,72175.28
2023-11-11T04:17:41.081Z,72175.28
2023-11-11T04:18:15.564Z,72181.28
2023-11-11T04:18:50.628Z,72171.31
2023-11-11T04:19:23.056Z,72183.28
2023-11-11T04:19:56.477Z,72177.28
2023-11-11T04:20:29.219Z,72181.28
2023-11-11T04:21:04.385Z,72183.28
2023-11-11T04:21:37.292Z,72179.28
2023-11-11T04:22:09.780Z,72183.28
2023-11-11T04:22:42.913Z,72191.25
2023-11-11T04:23:19.485Z,72183.28
2023-11-11T04:23:51.926Z,72179.28
2023-11-11T04:24:24.868Z,72195.25
2023-11-11T04:24:59.928Z,72185.28
2023-11-11T04:25:34.945Z,72193.25
2023-11-11T04:26:07.410Z,72195.25
2023-11-11T04:26:40.001Z,72191.25
2023-11-11T04:27:12.739Z,72199.25
2023-11-11T04:27:48.912Z,72199.25
2023-11-11T04:28:21.499Z,72203.22
2023-11-11T04:28:53.859Z,72203.22
2023-11-11T04:29:26.211Z,72205.22
2023-11-11T04:30:01.183Z,72201.25
2023-11-11T04:30:33.595Z,72211.22
2023-11-11T04:31:06.084Z,72213.22
2023-11-11T04:31:41.042Z,72211.22
2023-11-11T04:32:13.414Z,72211.22
2023-11-11T04:32:45.820Z,72211.22
2023-11-11T04:33:21.119Z,72211.22
2023-11-11T04:33:53.652Z,72215.22
2023-11-11T04:34:27.524Z,72215.22
2023-11-11T04:35:01.178Z,72219.19
2023-11-11T04:35:36.155Z,72215.22
2023-11-11T04:36:08.844Z,72223.19
2023-11-11T04:36:43.824Z,72213.22
2023-11-11T04:37:16.197Z,72211.22
2023-11-11T04:37:50.620Z,72215.22
2023-11-11T04:38:28.332Z,72217.19
2023-11-11T04:39:04.019Z,72211.22
2023-11-11T04:39:36.365Z,72215.22
2023-11-11T04:40:13.589Z,72211.22
2023-11-11T04:40:45.999Z,72217.19
2023-11-11T04:41:19.218Z,72211.22
2023-11-11T04:41:55.966Z,72221.19
2023-11-11T04:42:28.724Z,72223.19
2023-11-11T04:43:01.219Z,72223.19
2023-11-11T04:43:34.101Z,72229.19
2023-11-11T04:44:06.559Z,72237.16
2023-11-11T04:44:41.559Z,72215.22
2023-11-11T04:45:14.106Z,72229.19
2023-11-11T04:45:46.745Z,72227.19
2023-11-11T04:46:19.173Z,72233.16
2023-11-11T04:46:54.182Z,72241.16
2023-11-11T04:47:26.706Z,72239.16
2023-11-11T04:47:59.307Z,72237.16
2023-11-11T04:48:31.751Z,72239.16
2023-11-11T04:49:06.774Z,72239.16
2023-11-11T04:49:39.136Z,72239.16
2023-11-11T04:50:11.637Z,72243.16
2023-11-11T04:50:44.031Z,72243.16
2023-11-11T04:51:19.098Z,72243.16
2023-11-11T04:51:51.491Z,72243.16
2023-11-11T04:52:25.688Z,72247.13
2023-11-11T04:53:01.306Z,72251.13
2023-11-11T04:53:33.697Z,72255.13
2023-11-11T04:54:06.440Z,72253.13
2023-11-11T04:54:38.819Z,72253.13
2023-11-11T04:55:16.510Z,72259.13
2023-11-11T04:55:49.687Z,72259.13
2023-11-11T04:56:22.057Z,72259.13
2023-11-11T04:56:55.704Z,72259.13
2023-11-11T04:57:30.685Z,72259.13
2023-11-11T04:58:03.230Z,72263.09
2023-11-11T04:58:39.867Z,72267.09
2023-11-11T04:59:15.078Z,72265.09
2023-11-11T04:59:47.475Z,72261.09
2023-11-11T05:00:20.988Z,72267.09
2023-11-11T05:00:53.633Z,72271.09
2023-11-11T05:01:28.686Z,72271.09
2023-11-11T05:02:01.110Z,72271.09
2023-11-11T05:02:33.568Z,72271.09
2023-11-11T05:03:06.149Z,72279.06
2023-11-11T05:03:41.893Z,72283.06
2023-11-11T05:04:14.362Z,72279.06
2023-11-11T05:04:46.813Z,72271.09
2023-11-11T05:05:21.857Z,72275.06
2023-11-11T05:05:56.822Z,72279.06
2023-11-11T05:06:29.564Z,72281.06
2023-11-11T05:07:01.949Z,72275.06
2023-11-11T05:07:34.324Z,72279.06
2023-11-11T05:08:09.384Z,72275.06
2023-11-11T05:08:41.747Z,72283.06
2023-11-11T05:09:14.416Z,72283.06
2023-11-11T05:09:46.845Z,72281.06
2023-11-11T05:10:24.758Z,72283.06
2023-11-11T05:10:58.173Z,72285.06
2023-11-11T05:11:32.133Z,72279.06
2023-11-11T05:12:06.448Z,72283.06
2023-11-11T05:12:42.444Z,72283.06
2023-11-11T05:13:16.120Z,72283.06
2023-11-11T05:13:48.503Z,72283.06
2023-11-11T05:14:21.117Z,72281.06
2023-11-11T05:14:57.088Z,72283.06
2023-11-11T05:15:31.737Z,72283.06
2023-11-11T05:16:15.198Z,72283.06
2023-11-11T05:16:52.363Z,72291.03
2023-11-11T05:17:27.595Z,72287.06
2023-11-11T05:18:00.046Z,72283.06
2023-11-11T05:18:34.353Z,72283.06
2023-11-11T05:19:06.879Z,72283.06
2023-11-11T05:19:41.882Z,72285.06
2023-11-11T05:20:15.826Z,72283.06
2023-11-11T05:20:48.217Z,72287.06
2023-11-11T05:21:21.196Z,72299.03
2023-11-11T05:21:56.282Z,72287.06
2023-11-11T05:22:28.630Z,72293.03
2023-11-11T05:23:01.005Z,72287.06
2023-11-11T05:23:35.993Z,72291.03
2023-11-11T05:24:09.822Z,72297.03
2023-11-11T05:24:42.223Z,72287.06
2023-11-11T05:25:17.791Z,72297.03
2023-11-11T05:25:52.761Z,72299.03
2023-11-11T05:26:25.188Z,72299.03
2023-11-11T05:27:00.156Z,72303.03
2023-11-11T05:27:32.573Z,72309.00
2023-11-11T05:28:05.213Z,72299.03
2023-11-11T05:28:37.588Z,72303.03
2023-11-11T05:29:12.925Z,72313.00
2023-11-11T05:29:45.301Z,72307.00
2023-11-11T05:30:18.008Z,72318.97
2023-11-11T05:30:51.444Z,72315.00
2023-11-11T05:31:26.885Z,72322.97
2023-11-11T05:31:59.265Z,72318.97
2023-11-11T05:32:32.035Z,72315.00
2023-11-11T05:33:07.346Z,72317.00
2023-11-11T05:33:39.938Z,72315.00
2023-11-11T05:34:12.599Z,72317.00
2023-11-11T05:34:47.882Z,72322.97
2023-11-11T05:35:20.513Z,72322.97
2023-11-11T05:35:52.877Z,72317.00
2023-11-11T05:36:25.924Z,72318.97
2023-11-11T05:37:01.129Z,72318.97
2023-11-11T05:37:33.518Z,72322.97
2023-11-11T05:38:05.980Z,72328.97
2023-11-11T05:38:40.973Z,72322.97
2023-11-11T05:39:16.056Z,72326.97
2023-11-11T05:39:48.637Z,72320.97
2023-11-11T05:40:21.458Z,72320.97
2023-11-11T05:40:59.015Z,72320.97
2023-11-11T05:41:32.262Z,72318.97
2023-11-11T05:42:06.618Z,72322.97
2023-11-11T05:42:40.208Z,72320.97
2023-11-11T05:43:15.658Z,72326.97
2023-11-11T05:43:48.068Z,72315.00
2023-11-11T05:44:20.432Z,72318.97
2023-11-11T05:44:52.815Z,72318.97
2023-11-11T05:45:27.914Z,72315.00
2023-11-11T05:46:00.312Z,72320.97
2023-11-11T05:46:32.683Z,72326.97
2023-11-11T05:47:07.767Z,72322.97
2023-11-11T05:47:40.162Z,72320.97
2023-11-11T05:48:12.611Z,72322.97
2023-11-11T05:48:46.208Z,72318.97
2023-11-11T05:49:21.417Z,72326.97
2023-11-11T05:49:53.912Z,72326.97
2023-11-11T05:50:26.291Z,72326.97
2023-11-11T05:50:58.864Z,72326.97
2023-11-11T05:51:33.851Z,72322.97
2023-11-11T05:52:07.029Z,72326.97
2023-11-11T05:52:39.915Z,72330.97
2023-11-11T05:53:12.338Z,72330.97
2023-11-11T05:53:47.436Z,72328.97
2023-11-11T05:54:20.429Z,72326.97
2023-11-11T05:54:52.814Z,72326.97
2023-11-11T05:55:26.246Z,72332.97
2023-11-11T05:56:03.878Z,72336.94
2023-11-11T05:56:36.241Z,72334.94
2023-11-11T05:57:08.644Z,72334.94
2023-11-11T05:57:42.213Z,72336.94
2023-11-11T05:58:16.476Z,72334.94
2023-11-11T05:58:52.069Z,72340.94
2023-11-11T05:59:24.589Z,72342.94
2023-11-11T05:59:56.969Z,72344.94
2023-11-11T06:00:29.364Z,72346.94
2023-11-11T06:01:07.047Z,72346.94
2023-11-11T06:01:45.876Z,72354.91
2023-11-11T06:02:18.279Z,72346.94
2023-11-11T06:02:53.279Z,72352.91
2023-11-11T06:03:25.928Z,72346.94
2023-11-11T06:04:05.266Z,72346.94
2023-11-11T06:04:38.063Z,72350.91
2023-11-11T06:05:13.869Z,72346.94
2023-11-11T06:05:46.838Z,72344.94
2023-11-11T06:06:19.231Z,72350.91
2023-11-11T06:06:56.297Z,72350.91
2023-11-11T06:07:31.787Z,72350.91
2023-11-11T06:08:04.469Z,72358.91
2023-11-11T06:08:41.298Z,72362.88
2023-11-11T06:09:16.724Z,72356.91
2023-11-11T06:09:52.854Z,72356.91
2023-11-11T06:10:31.368Z,72362.88
2023-11-11T06:11:06.572Z,72362.88
2023-11-11T06:11:46.602Z,72358.91
2023-11-11T06:12:19.088Z,72368.88
2023-11-11T06:12:54.220Z,72366.88
2023-11-11T06:13:27.013Z,72376.88
2023-11-11T06:14:05.140Z,72378.84
2023-11-11T06:14:37.560Z,72374.88
2023-11-11T06:15:11.082Z,72378.84
2023-11-11T06:15:46.201Z,72376.88
2023-11-11T06:16:18.756Z,72382.84
2023-11-11T06:16:57.276Z,72390.84
2023-11-11T06:17:29.734Z,72390.84
2023-11-11T06:18:03.767Z,72390.84
2023-11-11T06:18:39.991Z,72402.81
2023-11-11T06:19:24.568Z,72394.81
2023-11-11T06:19:57.000Z,72390.84
2023-11-11T06:20:32.199Z,72392.81
2023-11-11T06:21:09.499Z,72398.81
2023-11-11T06:21:42.007Z,72402.81
2023-11-11T06:22:19.606Z,72402.81
2023-11-11T06:24:09.979Z,72406.81
2023-11-11T06:24:42.422Z,72402.81
2023-11-11T06:25:15.549Z,72408.78
2023-11-11T06:25:53.429Z,72410.78
2023-11-11T06:26:30.076Z,72412.78
2023-11-11T06:27:02.470Z,72410.78
2023-11-11T06:27:35.018Z,72402.81
2023-11-11T06:28:12.923Z,72410.78
2023-11-11T06:28:53.174Z,72416.78
2023-11-11T06:29:25.546Z,72412.78
2023-11-11T06:29:58.759Z,72422.75
2023-11-11T06:30:34.412Z,72414.78
2023-11-11T06:31:11.687Z,72410.78
2023-11-11T06:31:45.172Z,72414.78
2023-11-11T06:32:22.770Z,72414.78
2023-11-11T06:32:55.554Z,72414.78
2023-11-11T06:33:30.062Z,72418.78
2023-11-11T06:34:02.952Z,72414.78
2023-11-11T06:34:42.623Z,72414.78
2023-11-11T06:35:18.291Z,72410.78
2023-11-11T06:35:50.761Z,72410.78
2023-11-11T06:36:23.873Z,72410.78
2023-11-11T06:36:59.157Z,72410.78
2023-11-11T06:37:31.887Z,72414.78
2023-11-11T06:38:04.295Z,72416.78
2023-11-11T06:38:36.714Z,72420.78
2023-11-11T06:39:12.681Z,72412.78